Time;durP1;ratioP1;P1;durP2;ratioP2;P2;SDS_P1;SDS_P2;PMS_P1;PMS_P2;Temp;Humidity;BMP_temperature;BMP_pressure;BME280_temperature;BME280_humidity;BME280_pressure;Samples;Min_cycle;Max_cycle;Signal;HPM_P1;HPM_P2
2021/05/24 00:00:22;;;;;;;5.88;1.55;;;12.00;83.50;;;;;;5053183;28;20276;-84
2021/05/24 00:02:48;;;;;;;6.15;1.80;;;12.00;83.90;;;;;;5052286;28;20049;-85
2021/05/24 00:05:17;;;;;;;5.25;1.52;;;12.00;84.50;;;;;;5052409;28;20048;-86
2021/05/24 00:07:43;;;;;;;6.05;1.80;;;12.00;83.50;;;;;;5052773;28;20116;-83
2021/05/24 00:10:13;;;;;;;7.80;1.70;;;12.00;83.30;;;;;;5051537;28;20152;-85
2021/05/24 00:12:40;;;;;;;6.78;1.73;;;12.00;82.80;;;;;;5052532;28;20049;-84
2021/05/24 00:15:06;;;;;;;4.85;1.60;;;12.00;82.60;;;;;;5052357;28;20049;-84
2021/05/24 00:17:32;;;;;;;5.85;1.70;;;12.00;82.40;;;;;;5047265;28;20052;-85
2021/05/24 00:20:03;;;;;;;9.20;1.60;;;12.00;82.30;;;;;;5052383;28;20481;-85
2021/05/24 00:22:29;;;;;;;4.22;1.55;;;12.00;82.60;;;;;;5052654;28;20061;-85
2021/05/24 00:24:55;;;;;;;4.32;1.77;;;12.00;82.40;;;;;;5051130;28;20102;-85
2021/05/24 00:27:20;;;;;;;4.82;1.70;;;12.00;83.80;;;;;;5052038;28;20427;-85
2021/05/24 00:29:47;;;;;;;6.30;1.75;;;12.00;83.40;;;;;;5052152;28;20065;-86
2021/05/24 00:32:12;;;;;;;4.65;1.55;;;12.00;83.10;;;;;;5051777;28;20428;-84
2021/05/24 00:34:39;;;;;;;4.90;1.42;;;12.00;83.00;;;;;;5052581;28;20115;-85
2021/05/24 00:37:04;;;;;;;4.57;1.42;;;12.00;83.30;;;;;;5051450;28;20048;-86
2021/05/24 00:39:30;;;;;;;4.35;1.60;;;12.00;83.60;;;;;;5052203;28;20045;-85
2021/05/24 00:41:55;;;;;;;4.65;1.30;;;12.00;84.50;;;;;;5051897;28;20057;-86
2021/05/24 00:44:22;;;;;;;4.60;1.65;;;12.00;83.90;;;;;;5051753;28;20091;-87
2021/05/24 00:46:48;;;;;;;6.80;1.70;;;12.00;84.50;;;;;;5051307;28;20056;-88
2021/05/24 00:49:14;;;;;;;4.97;1.40;;;12.00;84.80;;;;;;5051773;28;20041;-87
2021/05/24 00:51:39;;;;;;;5.57;1.42;;;11.90;84.50;;;;;;5051581;28;20057;-86
2021/05/24 00:54:05;;;;;;;4.43;1.60;;;11.90;85.00;;;;;;5051542;28;20473;-86
2021/05/24 00:56:31;;;;;;;6.40;2.15;;;11.90;85.70;;;;;;5052120;28;20153;-86
2021/05/24 00:59:14;;;;;;;5.63;1.90;;;11.90;86.10;;;;;;5051523;28;20051;-86
2021/05/24 01:01:40;;;;;;;7.78;1.90;;;11.90;86.10;;;;;;5051803;28;20452;-87
2021/05/24 01:04:06;;;;;;;6.15;1.80;;;11.80;86.00;;;;;;5051827;28;20072;-86
2021/05/24 01:06:32;;;;;;;5.80;2.00;;;11.80;86.00;;;;;;5051152;28;20492;-86
2021/05/24 01:09:03;;;;;;;5.03;1.80;;;11.80;86.20;;;;;;5051648;28;20616;-86
2021/05/24 01:11:30;;;;;;;5.75;1.63;;;11.70;86.40;;;;;;5052091;28;20147;-86
2021/05/24 01:13:56;;;;;;;6.45;1.83;;;11.60;86.70;;;;;;5045232;28;20132;-85
2021/05/24 01:16:22;;;;;;;6.57;1.85;;;11.70;87.40;;;;;;5032005;28;20061;-85
2021/05/24 01:18:48;;;;;;;5.28;1.70;;;11.60;87.60;;;;;;5031912;28;20080;-85
2021/05/24 01:21:16;;;;;;;4.40;1.50;;;11.60;87.60;;;;;;5030941;28;20474;-84
2021/05/24 01:23:44;;;;;;;4.25;1.45;;;11.60;87.60;;;;;;5034946;28;20072;-84
2021/05/24 01:26:10;;;;;;;4.07;1.45;;;11.60;87.60;;;;;;5051056;28;20099;-82
2021/05/24 01:28:38;;;;;;;5.18;1.50;;;11.60;87.50;;;;;;5051507;28;20474;-84
2021/05/24 01:31:05;;;;;;;6.65;1.80;;;11.60;87.50;;;;;;5051806;28;20052;-84
2021/05/24 01:33:34;;;;;;;4.70;1.67;;;11.60;87.50;;;;;;5051184;28;20049;-84
2021/05/24 01:36:10;;;;;;;5.78;1.40;;;11.60;87.70;;;;;;5051491;28;20056;-84
2021/05/24 01:38:42;;;;;;;5.38;1.70;;;11.70;87.70;;;;;;5051781;28;20140;-84
2021/05/24 01:41:09;;;;;;;4.07;1.70;;;11.60;88.10;;;;;;5050796;28;20049;-84
2021/05/24 01:43:41;;;;;;;6.45;1.85;;;11.60;88.00;;;;;;5051962;28;20060;-84
2021/05/24 01:46:07;;;;;;;6.20;1.98;;;11.60;88.20;;;;;;5051141;28;20049;-84
2021/05/24 01:48:35;;;;;;;8.60;2.20;;;11.60;87.90;;;;;;5051117;28;20053;-84
2021/05/24 01:51:03;;;;;;;7.80;1.80;;;11.60;87.90;;;;;;5051368;28;20446;-84
2021/05/24 01:53:32;;;;;;;6.25;1.85;;;11.50;88.00;;;;;;5050103;28;20405;-84
2021/05/24 01:56:01;;;;;;;4.93;1.73;;;11.50;87.70;;;;;;5050772;28;20456;-84
2021/05/24 01:58:30;;;;;;;5.03;1.63;;;11.50;87.60;;;;;;5052848;28;20128;-83
2021/05/24 02:01:10;;;;;;;7.28;1.90;;;11.50;87.50;;;;;;5054373;28;20390;-84
2021/05/24 02:03:36;;;;;;;7.88;1.80;;;11.50;87.30;;;;;;5034236;28;20055;-85
2021/05/24 02:06:03;;;;;;;7.03;1.98;;;11.50;87.60;;;;;;5036419;28;20159;-84
2021/05/24 02:08:30;;;;;;;8.75;2.13;;;11.50;87.30;;;;;;5054454;28;20053;-84
2021/05/24 02:10:56;;;;;;;5.85;1.80;;;11.50;86.90;;;;;;5055024;28;20132;-85
2021/05/24 02:13:22;;;;;;;6.57;1.98;;;11.50;86.90;;;;;;5054953;28;20056;-85
2021/05/24 02:16:02;;;;;;;7.38;1.95;;;11.50;87.30;;;;;;5054644;28;20049;-85
2021/05/24 02:18:48;;;;;;;5.05;1.95;;;11.50;87.50;;;;;;5039866;28;20507;-85
2021/05/24 02:21:14;;;;;;;5.93;1.80;;;11.50;87.60;;;;;;5054862;28;20061;-84
2021/05/24 02:23:41;;;;;;;5.63;1.83;;;11.50;88.10;;;;;;5053741;28;20072;-84
2021/05/24 02:26:14;;;;;;;4.07;1.73;;;11.50;87.10;;;;;;5054628;28;20049;-85
2021/05/24 02:28:40;;;;;;;6.18;2.00;;;11.50;87.20;;;;;;5054640;28;20451;-85
2021/05/24 02:31:21;;;;;;;6.93;1.85;;;11.50;87.40;;;;;;5054052;28;20095;-85
2021/05/24 02:33:48;;;;;;;6.63;1.85;;;11.50;87.40;;;;;;5054933;28;20444;-85
2021/05/24 02:36:15;;;;;;;5.68;1.85;;;11.40;87.80;;;;;;5054321;28;20496;-84
2021/05/24 02:38:41;;;;;;;5.18;1.90;;;11.40;87.90;;;;;;5054059;28;20049;-85
2021/05/24 02:41:07;;;;;;;5.55;1.80;;;11.40;88.00;;;;;;5054115;28;20577;-84
2021/05/24 02:43:33;;;;;;;5.40;1.92;;;11.40;88.30;;;;;;5054050;28;20124;-85
2021/05/24 02:45:59;;;;;;;5.65;2.00;;;11.40;88.70;;;;;;5052636;28;20045;-86
2021/05/24 02:48:25;;;;;;;6.35;1.80;;;11.40;88.70;;;;;;5054391;28;20669;-85
2021/05/24 02:50:50;;;;;;;6.57;1.95;;;11.40;88.80;;;;;;5046926;28;20052;-86
2021/05/24 02:53:37;;;;;;;6.30;1.92;;;11.30;88.70;;;;;;5034086;28;20064;-85
2021/05/24 02:56:02;;;;;;;9.35;2.00;;;11.40;89.50;;;;;;5033724;28;20045;-85
2021/05/24 02:58:57;;;;;;;5.50;2.25;;;11.30;88.80;;;;;;5033802;28;20056;-85
2021/05/24 03:01:25;;;;;;;4.95;1.88;;;11.30;88.90;;;;;;5016940;28;20049;-86
2021/05/24 03:04:04;;;;;;;3.90;1.90;;;11.30;88.80;;;;;;5032366;28;20041;-86
2021/05/24 03:06:30;;;;;;;5.82;2.13;;;11.30;88.80;;;;;;5033486;28;20515;-86
2021/05/24 03:08:56;;;;;;;6.35;1.92;;;11.30;89.10;;;;;;5034031;28;20052;-83
2021/05/24 03:11:25;;;;;;;4.93;1.70;;;11.30;89.00;;;;;;5033471;28;20057;-85
2021/05/24 03:13:51;;;;;;;8.32;1.85;;;11.30;89.20;;;;;;5033471;28;20052;-86
2021/05/24 03:16:18;;;;;;;5.40;1.85;;;11.30;89.60;;;;;;5034007;28;20049;-86
2021/05/24 03:18:56;;;;;;;4.90;1.95;;;11.30;88.90;;;;;;5033379;28;20729;-84
2021/05/24 03:21:22;;;;;;;4.60;1.63;;;11.30;88.80;;;;;;5033092;28;20060;-85
2021/05/24 03:23:47;;;;;;;5.35;1.95;;;11.30;89.10;;;;;;5036736;28;20052;-85
2021/05/24 03:26:13;;;;;;;6.40;2.00;;;11.30;88.90;;;;;;5052670;28;20100;-85
2021/05/24 03:28:43;;;;;;;7.72;2.00;;;11.30;88.70;;;;;;5053709;28;20128;-85
2021/05/24 03:31:11;;;;;;;5.90;1.90;;;11.30;88.70;;;;;;5053469;28;20068;-85
2021/05/24 03:33:37;;;;;;;6.90;1.80;;;11.20;88.80;;;;;;5052765;28;20045;-85
2021/05/24 03:36:03;;;;;;;3.45;1.45;;;11.20;88.90;;;;;;5053121;28;20079;-85
2021/05/24 03:38:38;;;;;;;7.25;2.05;;;11.20;88.50;;;;;;5053503;28;20067;-85
2021/05/24 03:41:04;;;;;;;4.30;1.73;;;11.20;88.60;;;;;;5052566;28;20061;-84
2021/05/24 03:43:47;;;;;;;5.10;1.58;;;11.20;88.60;;;;;;5053377;28;20075;-85
2021/05/24 03:46:13;;;;;;;6.70;1.90;;;11.20;88.70;;;;;;5053116;28;20102;-84
2021/05/24 03:48:51;;;;;;;6.85;1.92;;;11.20;88.80;;;;;;5052188;28;20048;-84
2021/05/24 03:51:17;;;;;;;4.65;1.65;;;11.20;88.90;;;;;;5052857;28;20060;-85
2021/05/24 03:53:43;;;;;;;4.38;1.40;;;11.10;88.80;;;;;;5053278;28;20489;-85
2021/05/24 03:56:13;;;;;;;7.93;1.73;;;11.10;88.60;;;;;;5052536;28;20060;-85
2021/05/24 03:58:39;;;;;;;6.35;1.52;;;11.20;89.10;;;;;;5053285;28;20452;-85
2021/05/24 04:01:04;;;;;;;5.18;1.70;;;11.10;89.00;;;;;;5051920;28;20044;-84
2021/05/24 04:03:30;;;;;;;5.32;1.70;;;11.20;89.00;;;;;;5052682;28;20048;-84
2021/05/24 04:06:01;;;;;;;4.60;1.45;;;11.10;88.90;;;;;;5052640;28;20060;-84
2021/05/24 04:08:34;;;;;;;5.55;1.60;;;11.10;88.80;;;;;;5052600;28;20076;-85
2021/05/24 04:11:00;;;;;;;4.23;1.50;;;11.10;88.80;;;;;;5052852;28;20061;-84
2021/05/24 04:13:26;;;;;;;4.97;1.42;;;11.10;88.70;;;;;;5053083;28;20120;-84
2021/05/24 04:15:54;;;;;;;5.82;1.60;;;11.10;88.70;;;;;;5051677;28;20552;-84
2021/05/24 04:18:21;;;;;;;5.57;1.30;;;11.10;88.60;;;;;;5053130;28;20056;-85
2021/05/24 04:20:47;;;;;;;6.65;1.40;;;11.10;89.00;;;;;;5052574;28;20138;-84
2021/05/24 04:23:16;;;;;;;4.38;1.35;;;11.20;88.80;;;;;;5051490;28;20041;-85
2021/05/24 04:25:42;;;;;;;5.65;1.23;;;11.10;88.50;;;;;;5053104;28;20045;-85
2021/05/24 04:28:08;;;;;;;5.22;1.20;;;11.20;88.30;;;;;;5051968;28;20063;-84
2021/05/24 04:30:34;;;;;;;3.17;1.20;;;11.20;88.10;;;;;;5052137;28;20045;-84
2021/05/24 04:33:00;;;;;;;5.32;1.13;;;11.20;88.20;;;;;;5052232;28;20057;-84
2021/05/24 04:35:25;;;;;;;5.70;1.23;;;11.20;88.00;;;;;;5052493;28;20048;-84
2021/05/24 04:37:53;;;;;;;6.13;1.40;;;11.20;87.90;;;;;;5051662;28;20056;-84
2021/05/24 04:40:19;;;;;;;5.70;0.93;;;11.20;87.80;;;;;;5052993;28;20049;-84
2021/05/24 04:43:00;;;;;;;4.70;1.20;;;11.30;87.70;;;;;;5051759;28;20049;-84
2021/05/24 04:45:26;;;;;;;5.22;1.42;;;11.30;87.70;;;;;;5052310;28;20083;-84
2021/05/24 04:47:52;;;;;;;4.38;1.20;;;11.30;87.70;;;;;;5051820;28;20049;-85
2021/05/24 04:50:17;;;;;;;5.30;1.30;;;11.40;87.70;;;;;;5051536;28;20049;-84
2021/05/24 04:52:43;;;;;;;4.95;1.20;;;11.40;87.50;;;;;;5052318;28;20073;-84
2021/05/24 04:55:10;;;;;;;5.13;1.10;;;11.40;87.60;;;;;;5052198;28;20121;-84
2021/05/24 04:57:36;;;;;;;5.57;1.20;;;11.40;87.50;;;;;;5051328;28;20489;-84
2021/05/24 05:00:08;;;;;;;5.15;1.35;;;11.50;87.50;;;;;;5051691;28;20128;-85
2021/05/24 05:02:35;;;;;;;5.53;1.23;;;11.50;87.50;;;;;;5052005;28;20045;-85
2021/05/24 05:05:01;;;;;;;6.47;1.50;;;11.50;87.50;;;;;;5051544;28;20053;-84
2021/05/24 05:07:27;;;;;;;5.13;1.30;;;11.50;87.70;;;;;;5052524;28;20049;-85
2021/05/24 05:09:54;;;;;;;4.93;1.10;;;11.50;87.60;;;;;;5051083;28;20056;-84
2021/05/24 05:12:34;;;;;;;3.67;1.25;;;11.50;87.60;;;;;;5033382;28;20143;-86
2021/05/24 05:15:00;;;;;;;6.75;1.27;;;11.50;87.80;;;;;;5052324;28;20121;-85
2021/05/24 05:17:27;;;;;;;4.90;1.30;;;11.50;87.70;;;;;;5052009;28;20141;-86
2021/05/24 05:20:05;;;;;;;5.40;1.40;;;11.60;87.70;;;;;;5051490;28;20124;-85
2021/05/24 05:22:30;;;;;;;5.15;1.00;;;11.50;87.80;;;;;;5051898;28;20485;-85
2021/05/24 05:24:56;;;;;;;5.15;1.30;;;11.50;87.70;;;;;;5051430;28;20056;-86
2021/05/24 05:27:25;;;;;;;3.92;0.98;;;11.60;87.80;;;;;;5051234;28;20095;-84
2021/05/24 05:29:51;;;;;;;4.78;1.30;;;11.60;87.70;;;;;;5052027;28;20053;-85
2021/05/24 05:32:16;;;;;;;4.55;1.13;;;11.60;87.50;;;;;;5051316;28;20048;-84
2021/05/24 05:34:42;;;;;;;9.18;1.30;;;11.60;87.50;;;;;;5055873;28;20098;-85
2021/05/24 05:37:08;;;;;;;4.75;1.25;;;11.60;87.40;;;;;;5055725;28;20106;-84
2021/05/24 05:39:41;;;;;;;6.10;1.40;;;11.60;87.40;;;;;;5054814;28;20853;-84
2021/05/24 05:42:07;;;;;;;4.00;1.05;;;11.60;87.30;;;;;;5055288;28;20052;-85
2021/05/24 05:44:33;;;;;;;5.95;1.17;;;11.70;87.40;;;;;;5055394;28;20415;-85
2021/05/24 05:47:01;;;;;;;5.90;1.15;;;11.70;87.40;;;;;;5054457;28;20053;-84
2021/05/24 05:49:30;;;;;;;4.60;1.20;;;11.70;87.20;;;;;;5055333;28;20069;-85
2021/05/24 05:51:55;;;;;;;8.60;1.40;;;11.80;87.20;;;;;;5054996;28;20048;-84
2021/05/24 05:54:21;;;;;;;6.53;1.50;;;11.80;87.10;;;;;;5054809;28;20049;-84
2021/05/24 05:56:56;;;;;;;6.85;1.30;;;11.80;87.00;;;;;;5055609;28;20055;-85
2021/05/24 05:59:24;;;;;;;5.53;1.23;;;11.80;87.00;;;;;;5055732;28;20053;-85
2021/05/24 06:01:49;;;;;;;5.53;1.40;;;11.80;87.00;;;;;;5054523;28;20083;-85
2021/05/24 06:04:24;;;;;;;5.60;1.20;;;11.90;87.10;;;;;;5055260;28;20045;-85
2021/05/24 06:06:50;;;;;;;5.22;1.30;;;11.80;87.00;;;;;;5055635;28;20056;-85
2021/05/24 06:09:16;;;;;;;5.50;1.20;;;11.90;86.80;;;;;;5054528;28;20481;-85
2021/05/24 06:11:49;;;;;;;5.72;1.42;;;11.90;86.70;;;;;;5055311;28;20487;-85
2021/05/24 06:14:14;;;;;;;4.13;0.90;;;11.90;86.60;;;;;;5054850;28;20481;-85
2021/05/24 06:16:40;;;;;;;5.15;1.25;;;12.00;86.70;;;;;;5054136;28;20049;-84
2021/05/24 06:19:06;;;;;;;2.97;0.93;;;12.00;86.70;;;;;;5054747;28;20049;-84
2021/05/24 06:21:31;;;;;;;5.65;1.05;;;12.00;86.60;;;;;;5054561;28;20481;-83
2021/05/24 06:24:07;;;;;;;6.22;1.05;;;12.10;86.60;;;;;;5054905;28;20067;-85
2021/05/24 06:26:33;;;;;;;5.22;1.23;;;12.10;86.60;;;;;;5055074;28;20057;-84
2021/05/24 06:28:59;;;;;;;5.15;1.17;;;12.10;86.60;;;;;;5053642;28;20056;-84
2021/05/24 06:31:25;;;;;;;6.00;1.33;;;12.20;86.50;;;;;;5054590;28;20057;-84
2021/05/24 06:33:51;;;;;;;3.80;1.20;;;12.20;86.50;;;;;;5054717;28;20098;-84
2021/05/24 06:36:19;;;;;;;6.63;1.27;;;12.20;86.40;;;;;;5054214;28;20453;-85
2021/05/24 06:38:45;;;;;;;3.72;1.02;;;12.30;86.30;;;;;;5054547;28;20509;-85
2021/05/24 06:41:10;;;;;;;3.90;1.17;;;12.30;86.40;;;;;;5054280;28;20057;-84
2021/05/24 06:43:38;;;;;;;4.65;1.20;;;12.40;86.40;;;;;;5053864;28;20045;-85
2021/05/24 06:46:04;;;;;;;4.90;1.00;;;12.40;86.30;;;;;;5053968;28;20069;-84
2021/05/24 06:48:30;;;;;;;3.95;1.10;;;12.50;86.20;;;;;;5054327;28;20080;-85
2021/05/24 06:50:55;;;;;;;3.65;1.00;;;12.50;86.70;;;;;;5055099;28;20045;-85
2021/05/24 06:53:21;;;;;;;6.15;1.10;;;12.50;85.90;;;;;;5056202;28;20081;-84
2021/05/24 06:56:04;;;;;;;3.63;1.10;;;12.60;85.80;;;;;;5054114;28;20120;-85
2021/05/24 06:58:30;;;;;;;3.97;1.00;;;12.60;85.60;;;;;;5048980;28;20137;-84
2021/05/24 07:00:56;;;;;;;8.30;1.20;;;12.70;85.30;;;;;;5050607;28;20407;-85
2021/05/24 07:03:22;;;;;;;5.32;1.13;;;12.70;85.40;;;;;;5047039;28;20046;-85
2021/05/24 07:05:57;;;;;;;4.18;1.00;;;12.80;85.40;;;;;;5050951;28;20455;-86
2021/05/24 07:08:23;;;;;;;4.45;1.00;;;12.90;85.20;;;;;;5054205;28;20051;-85
2021/05/24 07:10:49;;;;;;;4.30;0.98;;;12.90;85.30;;;;;;5053539;28;20404;-85
2021/05/24 07:13:15;;;;;;;4.10;1.20;;;12.90;85.20;;;;;;5053739;28;20481;-85
2021/05/24 07:15:42;;;;;;;4.40;1.10;;;13.00;85.10;;;;;;5054014;28;20041;-85
2021/05/24 07:18:10;;;;;;;4.93;0.90;;;13.00;84.80;;;;;;5052176;28;20573;-85
2021/05/24 07:20:36;;;;;;;3.78;0.82;;;13.10;84.20;;;;;;5053267;28;20037;-85
2021/05/24 07:23:04;;;;;;;5.07;0.98;;;13.10;84.10;;;;;;5053183;28;20417;-83
2021/05/24 07:25:30;;;;;;;3.88;1.00;;;13.20;83.90;;;;;;5052475;28;20052;-81
2021/05/24 07:27:55;;;;;;;3.60;0.98;;;13.20;83.80;;;;;;5053270;28;20049;-81
2021/05/24 07:30:21;;;;;;;3.97;0.70;;;13.30;83.30;;;;;;5054166;28;20053;-81
2021/05/24 07:32:47;;;;;;;3.17;0.93;;;13.40;83.20;;;;;;5052395;28;20064;-82
2021/05/24 07:35:14;;;;;;;5.18;0.98;;;13.40;83.00;;;;;;5053320;28;20045;-85
2021/05/24 07:37:40;;;;;;;4.00;1.00;;;13.50;82.80;;;;;;5047085;28;20045;-83
2021/05/24 07:40:07;;;;;;;2.95;0.90;;;13.50;83.70;;;;;;5040264;28;20072;-83
2021/05/24 07:42:34;;;;;;;5.63;1.00;;;13.50;83.10;;;;;;5043103;28;20048;-83
2021/05/24 07:45:01;;;;;;;5.95;1.30;;;13.60;83.40;;;;;;5045174;28;20576;-81
2021/05/24 07:47:27;;;;;;;4.40;0.90;;;13.60;83.20;;;;;;5051935;28;20132;-82
2021/05/24 07:49:53;;;;;;;3.97;0.95;;;13.70;82.80;;;;;;5052963;28;20528;-81
2021/05/24 07:52:18;;;;;;;5.88;1.08;;;13.70;82.40;;;;;;5053673;28;20049;-81
2021/05/24 07:54:44;;;;;;;4.32;1.00;;;13.70;82.20;;;;;;5044409;28;20124;-82
2021/05/24 07:57:13;;;;;;;3.25;0.85;;;13.80;81.90;;;;;;5051062;28;20055;-82
2021/05/24 07:59:48;;;;;;;4.15;0.90;;;13.80;81.90;;;;;;5052422;28;20472;-86
2021/05/24 08:02:14;;;;;;;4.07;0.82;;;13.90;81.80;;;;;;5051756;28;20037;-87
2021/05/24 08:04:40;;;;;;;2.53;0.70;;;13.90;81.60;;;;;;5053353;28;20080;-88
2021/05/24 08:07:05;;;;;;;4.53;1.08;;;13.90;80.80;;;;;;5052252;28;20509;-86
2021/05/24 08:09:47;;;;;;;3.58;0.80;;;13.90;80.80;;;;;;5053114;28;20061;-89
2021/05/24 08:12:13;;;;;;;4.15;0.73;;;14.00;80.50;;;;;;5052611;28;20128;-87
2021/05/24 08:14:38;;;;;;;4.00;0.85;;;14.00;81.00;;;;;;5052345;28;20152;-88
2021/05/24 08:17:10;;;;;;;5.22;1.00;;;14.00;81.70;;;;;;5053074;28;20076;-88
2021/05/24 08:19:37;;;;;;;3.33;1.00;;;14.00;82.70;;;;;;5052888;28;20512;-87
2021/05/24 08:22:02;;;;;;;3.75;1.10;;;13.90;83.40;;;;;;5051885;28;20485;-87
2021/05/24 08:24:29;;;;;;;3.15;1.00;;;13.90;84.00;;;;;;5053188;28;20057;-87
2021/05/24 08:26:55;;;;;;;4.13;1.15;;;13.80;84.80;;;;;;5053886;28;20405;-86
2021/05/24 08:29:21;;;;;;;3.65;1.02;;;13.70;85.40;;;;;;5052493;28;20049;-87
2021/05/24 08:31:49;;;;;;;5.05;1.35;;;13.70;86.00;;;;;;5052917;28;20056;-86
2021/05/24 08:35:00;;;;;;;2.47;0.90;;;13.60;86.60;;;;;;5052335;28;20102;-87
2021/05/24 08:37:26;;;;;;;5.72;1.17;;;13.50;86.60;;;;;;5004729;28;20077;-87
2021/05/24 08:40:10;;;;;;;3.25;0.98;;;13.50;87.10;;;;;;5052436;28;20083;-87
2021/05/24 08:42:41;;;;;;;4.35;1.08;;;13.40;87.20;;;;;;5052388;28;20516;-85
2021/05/24 08:45:08;;;;;;;4.13;0.85;;;13.30;87.60;;;;;;5052778;28;20048;-84
2021/05/24 08:47:34;;;;;;;5.30;0.95;;;13.30;87.90;;;;;;5052823;28;20118;-84
2021/05/24 08:50:00;;;;;;;3.67;0.90;;;13.20;88.20;;;;;;5051542;28;20431;-83
2021/05/24 08:52:32;;;;;;;3.97;1.02;;;13.20;88.40;;;;;;5052361;28;20045;-84
2021/05/24 08:54:58;;;;;;;3.60;0.90;;;13.10;88.60;;;;;;5052377;28;20119;-86
2021/05/24 08:57:44;;;;;;;3.08;0.88;;;13.10;88.80;;;;;;5051872;28;20492;-85
2021/05/24 09:00:27;;;;;;;3.63;0.93;;;13.10;89.00;;;;;;5049328;28;20056;-86
2021/05/24 09:02:58;;;;;;;2.72;0.90;;;13.10;89.10;;;;;;5050561;28;20077;-84
2021/05/24 09:05:32;;;;;;;4.18;1.00;;;13.00;89.30;;;;;;5099733;22;20405;-86
2021/05/24 09:08:05;;;;;;;4.00;1.05;;;13.10;89.70;;;;;;5030093;28;20144;-87
2021/05/24 09:10:47;;;;;;;5.55;0.90;;;13.10;89.80;;;;;;5036016;28;20057;-84
2021/05/24 09:13:15;;;;;;;2.63;0.93;;;13.10;89.60;;;;;;5035649;28;20068;-86
2021/05/24 09:15:45;;;;;;;2.67;0.90;;;13.10;89.50;;;;;;5035621;28;20045;-86
2021/05/24 09:18:32;;;;;;;3.45;1.10;;;13.10;89.30;;;;;;5034359;28;20060;-87
2021/05/24 09:21:06;;;;;;;2.25;1.05;;;13.10;89.00;;;;;;5035783;28;20116;-85
2021/05/24 09:23:35;;;;;;;4.32;1.20;;;13.10;89.10;;;;;;5036415;28;20060;-84
2021/05/24 09:26:13;;;;;;;2.75;1.08;;;13.10;89.50;;;;;;5035386;28;20049;-87
2021/05/24 09:28:49;;;;;;;5.05;1.10;;;13.10;89.70;;;;;;5036025;28;20061;-85
2021/05/24 09:31:32;;;;;;;6.68;1.40;;;13.10;89.50;;;;;;5035752;28;20516;-85
2021/05/24 09:34:11;;;;;;;5.20;1.20;;;13.00;89.30;;;;;;5036054;28;20076;-85
2021/05/24 09:36:43;;;;;;;2.50;0.90;;;13.00;89.40;;;;;;5036099;28;20124;-88
2021/05/24 09:39:30;;;;;;;5.25;1.10;;;13.00;89.50;;;;;;5034105;28;20045;-86
2021/05/24 09:42:15;;;;;;;3.75;0.85;;;13.00;89.20;;;;;;5032845;28;20163;-87
2021/05/24 09:44:56;;;;;;;5.07;1.30;;;13.00;89.40;;;;;;5035817;28;20055;-88
2021/05/24 09:47:32;;;;;;;4.00;1.08;;;12.90;89.60;;;;;;5034992;28;20500;-84
2021/05/24 09:50:28;;;;;;;3.58;1.17;;;12.90;89.80;;;;;;5040198;28;20051;-86
2021/05/24 09:52:54;;;;;;;5.43;1.27;;;12.90;89.90;;;;;;5037970;28;20046;-87
2021/05/24 09:55:28;;;;;;;4.65;0.82;;;13.00;89.90;;;;;;5035947;28;20092;-87
2021/05/24 09:58:06;;;;;;;3.45;1.10;;;12.90;90.00;;;;;;5035514;28;20061;-86
2021/05/24 10:01:02;;;;;;;3.72;1.05;;;12.90;90.10;;;;;;5035083;28;20050;-86
2021/05/24 10:03:41;;;;;;;2.13;0.80;;;12.90;90.10;;;;;;5035458;28;20516;-86
2021/05/24 10:06:07;;;;;;;3.08;1.00;;;12.90;90.20;;;;;;5035109;28;20060;-86
2021/05/24 10:08:32;;;;;;;4.30;1.20;;;12.90;90.20;;;;;;5035032;28;20049;-85
2021/05/24 10:11:15;;;;;;;3.35;1.08;;;12.90;90.10;;;;;;5035137;28;20378;-85
2021/05/24 10:13:41;;;;;;;3.93;1.07;;;12.90;90.30;;;;;;5048271;28;20052;-84
2021/05/24 10:16:14;;;;;;;4.03;1.08;;;12.90;90.40;;;;;;5056817;28;20128;-85
2021/05/24 10:18:40;;;;;;;4.28;1.10;;;12.90;90.50;;;;;;5054650;28;20183;-84
2021/05/24 10:21:21;;;;;;;3.33;1.10;;;12.90;90.60;;;;;;5035976;28;20128;-85
2021/05/24 10:23:47;;;;;;;3.33;1.05;;;12.90;90.60;;;;;;5035209;28;20050;-86
2021/05/24 10:26:19;;;;;;;2.65;1.10;;;13.00;90.80;;;;;;5036426;28;20504;-86
2021/05/24 10:28:47;;;;;;;5.47;1.10;;;13.00;90.80;;;;;;5035774;28;20056;-86
2021/05/24 10:34:16;;;;;;;4.60;1.20;;;13.00;90.90;;;;;;5101642;23;20068;-86
2021/05/24 10:36:44;;;;;;;4.53;1.23;;;13.00;90.70;;;;;;5093945;28;20416;-86
2021/05/24 10:39:22;;;;;;;4.07;1.23;;;13.10;90.80;;;;;;5094704;28;20514;-84
2021/05/24 10:41:59;;;;;;;6.10;1.42;;;13.10;90.90;;;;;;5049998;22;20616;-90
2021/05/24 10:44:43;;;;;;;5.25;1.48;;;13.10;90.80;;;;;;5035552;28;20132;-88
2021/05/24 10:47:19;;;;;;;4.15;1.30;;;13.10;90.70;;;;;;5034342;28;20046;-87
2021/05/24 10:50:06;;;;;;;3.97;1.27;;;13.20;90.90;;;;;;5040247;28;20107;-85
2021/05/24 10:52:36;;;;;;;4.35;1.42;;;13.20;91.20;;;;;;5054613;28;20051;-81
2021/05/24 10:55:27;;;;;;;4.78;1.25;;;13.20;90.70;;;;;;5054252;28;20516;-81
2021/05/24 10:58:08;;;;;;;4.70;1.63;;;13.30;90.40;;;;;;5035954;28;20049;-81
2021/05/24 11:01:05;;;;;;;4.38;1.30;;;13.30;90.50;;;;;;5034033;28;20123;-81
2021/05/24 11:03:31;;;;;;;4.53;1.70;;;13.30;90.40;;;;;;5031421;28;20077;-81
2021/05/24 11:06:17;;;;;;;5.25;1.52;;;13.30;90.40;;;;;;5034158;28;20057;-81
2021/05/24 11:08:51;;;;;;;4.55;1.50;;;13.30;90.30;;;;;;5034432;28;20051;-81
2021/05/24 11:11:28;;;;;;;4.20;1.40;;;13.30;90.60;;;;;;5033766;28;20042;-82
2021/05/24 11:14:05;;;;;;;2.97;1.20;;;13.40;90.50;;;;;;5049050;28;20122;-81
2021/05/24 11:16:33;;;;;;;5.22;1.58;;;13.40;90.40;;;;;;5048873;28;20037;-82
2021/05/24 11:19:11;;;;;;;4.57;1.38;;;13.40;90.20;;;;;;5033168;28;20056;-82
2021/05/24 11:21:42;;;;;;;7.53;1.90;;;13.40;90.20;;;;;;5038726;28;20386;-82
2021/05/24 11:27:05;;;;;;;4.15;1.27;;;13.50;90.10;;;;;;5031671;28;20045;-83
2021/05/24 11:29:31;;;;;;;3.72;1.35;;;13.50;90.00;;;;;;5032753;28;20127;-82
2021/05/24 11:31:56;;;;;;;4.22;1.42;;;13.50;89.80;;;;;;5031269;28;20485;-82
2021/05/24 11:34:28;;;;;;;2.72;1.30;;;13.60;89.50;;;;;;5033417;28;20132;-82
2021/05/24 11:36:57;;;;;;;4.90;1.30;;;13.50;89.20;;;;;;5033675;28;20196;-82
2021/05/24 11:39:50;;;;;;;5.13;1.55;;;13.60;89.00;;;;;;5032735;28;20045;-83
2021/05/24 11:42:26;;;;;;;4.43;1.30;;;13.60;88.80;;;;;;5033639;28;20061;-82
2021/05/24 11:44:55;;;;;;;6.00;1.60;;;13.60;89.20;;;;;;5034286;28;20117;-81
2021/05/24 11:47:26;;;;;;;5.53;1.30;;;13.50;89.30;;;;;;5052977;28;20520;-82
2021/05/24 11:50:03;;;;;;;5.57;1.40;;;13.60;90.00;;;;;;5053489;28;20378;-82
2021/05/24 11:52:33;;;;;;;3.42;1.15;;;13.60;90.00;;;;;;5052621;28;20063;-82
2021/05/24 11:55:00;;;;;;;3.85;1.13;;;13.60;89.80;;;;;;5055495;28;20068;-82
2021/05/24 11:57:31;;;;;;;3.47;1.00;;;13.60;89.90;;;;;;5053613;28;20052;-82
2021/05/24 11:59:59;;;;;;;3.85;1.13;;;13.60;89.90;;;;;;5052082;28;20041;-82
2021/05/24 12:02:25;;;;;;;2.50;0.90;;;13.60;90.00;;;;;;5053279;28;20041;-82
2021/05/24 12:04:51;;;;;;;3.05;1.02;;;13.70;90.00;;;;;;5053081;28;20473;-82
2021/05/24 12:07:22;;;;;;;2.88;1.00;;;13.60;89.90;;;;;;5052472;28;20124;-82
2021/05/24 12:09:56;;;;;;;5.72;0.90;;;13.60;89.90;;;;;;5053552;28;20051;-82
2021/05/24 12:12:38;;;;;;;2.72;1.00;;;13.70;89.40;;;;;;5053425;28;20053;-82
2021/05/24 12:15:08;;;;;;;2.42;0.75;;;13.70;89.00;;;;;;5052229;28;20489;-82
2021/05/24 12:17:35;;;;;;;2.17;0.63;;;13.70;88.90;;;;;;5053016;28;20057;-82
2021/05/24 12:20:07;;;;;;;2.97;1.00;;;13.60;88.40;;;;;;5053293;28;20052;-89
2021/05/24 12:22:41;;;;;;;2.22;0.75;;;13.60;88.70;;;;;;5052530;28;20386;-85
2021/05/24 12:25:09;;;;;;;3.25;0.75;;;13.60;88.70;;;;;;5050699;28;20049;-83
2021/05/24 12:27:35;;;;;;;2.67;0.68;;;13.60;88.90;;;;;;5051879;28;20093;-83
2021/05/24 12:30:28;;;;;;;2.50;0.70;;;13.60;89.00;;;;;;5052508;28;20131;-85
2021/05/24 12:33:08;;;;;;;3.45;0.88;;;13.60;89.00;;;;;;5047528;28;20045;-86
2021/05/24 12:35:44;;;;;;;4.47;0.80;;;13.60;88.80;;;;;;5031905;28;20053;-90
2021/05/24 12:38:32;;;;;;;4.25;0.90;;;13.60;89.00;;;;;;5032600;28;20042;-87
2021/05/24 12:41:03;;;;;;;2.05;0.70;;;13.60;88.90;;;;;;5031998;28;20501;-88
2021/05/24 12:43:30;;;;;;;4.18;0.80;;;13.50;89.30;;;;;;5038921;28;20041;-84
2021/05/24 12:45:56;;;;;;;3.95;0.90;;;13.60;89.90;;;;;;5052384;28;20048;-84
2021/05/24 12:48:40;;;;;;;2.75;0.93;;;13.50;90.00;;;;;;5033972;28;20049;-86
2021/05/24 12:51:15;;;;;;;3.72;0.88;;;13.60;90.20;;;;;;5052447;28;20053;-84
2021/05/24 12:54:01;;;;;;;4.32;1.05;;;13.60;90.20;;;;;;5052499;28;20052;-84
2021/05/24 12:56:37;;;;;;;2.00;0.80;;;13.60;90.10;;;;;;5051289;28;20049;-84
2021/05/24 12:59:18;;;;;;;3.90;1.10;;;13.60;90.40;;;;;;5052438;28;20048;-84
2021/05/24 13:01:44;;;;;;;4.90;1.20;;;13.60;90.60;;;;;;5052702;28;20059;-84
2021/05/24 13:04:17;;;;;;;5.38;1.13;;;13.70;90.60;;;;;;5051381;28;20131;-84
2021/05/24 13:06:56;;;;;;;5.32;1.20;;;13.70;90.50;;;;;;5054027;28;20087;-86
2021/05/24 13:09:31;;;;;;;3.25;0.98;;;13.70;90.50;;;;;;5052362;28;20060;-86